Time;durP1;ratioP1;P1;durP2;ratioP2;P2;SDS_P1;SDS_P2;PMS_P1;PMS_P2;Temp;Humidity;BMP_temperature;BMP_pressure;BME280_temperature;BME280_humidity;BME280_pressure;Samples;Min_cycle;Max_cycle;Signal;HPM_P1;HPM_P2
2023/02/17 00:02:14;;;;;;;56.23;29.77;;;;;;;-145.18;100.00;60484.78;5036614;28;20060;-70
2023/02/17 00:04:40;;;;;;;67.23;34.20;;;;;;;-145.18;100.00;60484.78;5040976;28;20465;-70
2023/02/17 00:07:05;;;;;;;51.47;25.67;;;;;;;-145.18;100.00;60484.78;5049003;28;20056;-70
2023/02/17 00:09:30;;;;;;;61.47;30.70;;;;;;;-145.18;100.00;60484.78;5049965;28;20325;-70
2023/02/17 00:11:56;;;;;;;57.10;29.40;;;;;;;-145.18;100.00;60484.78;5050108;28;20035;-70
2023/02/17 00:14:21;;;;;;;49.53;23.90;;;;;;;-145.18;100.00;60484.78;5051511;28;20040;-70
2023/02/17 00:16:46;;;;;;;60.10;29.77;;;;;;;-145.18;100.00;60484.78;5039722;28;20035;-70
2023/02/17 00:19:24;;;;;;;61.20;32.23;;;;;;;-145.18;100.00;60484.78;5040396;28;20496;-70
2023/02/17 00:22:00;;;;;;;54.27;28.00;;;;;;;-145.18;100.00;60484.78;5036371;28;20033;-70
2023/02/17 00:24:28;;;;;;;66.93;32.53;;;;;;;-145.18;100.00;60484.78;5036356;28;20021;-70
2023/02/17 00:26:54;;;;;;;64.37;31.33;;;;;;;-145.18;100.00;60484.78;5046991;28;20487;-70
2023/02/17 00:29:20;;;;;;;56.63;26.90;;;;;;;-145.18;100.00;60484.78;5042410;28;20063;-70
2023/02/17 00:31:46;;;;;;;59.10;28.63;;;;;;;-145.18;100.00;60484.78;5041515;28;20031;-70
2023/02/17 00:34:12;;;;;;;61.97;30.10;;;;;;;-145.18;100.00;60484.78;5041217;28;20033;-70
2023/02/17 00:36:38;;;;;;;55.60;27.07;;;;;;;-145.18;100.00;60484.78;5041150;28;20464;-70
2023/02/17 00:39:05;;;;;;;61.83;30.03;;;;;;;-145.18;100.00;60484.78;5036248;28;20504;-70
2023/02/17 00:41:31;;;;;;;71.00;34.00;;;;;;;-145.18;100.00;60484.78;5042305;28;20037;-70
2023/02/17 00:43:57;;;;;;;49.53;23.03;;;;;;;-145.18;100.00;60484.78;5045756;28;20025;-68
2023/02/17 00:46:24;;;;;;;66.17;31.67;;;;;;;-145.18;100.00;60484.78;5034101;28;20025;-70
2023/02/17 00:48:50;;;;;;;56.30;27.50;;;;;;;-145.18;100.00;60484.78;5037623;28;20041;-70
2023/02/17 00:51:16;;;;;;;69.13;34.27;;;;;;;-145.18;100.00;60484.78;5040516;28;20021;-70
2023/02/17 00:53:42;;;;;;;65.33;33.77;;;;;;;-145.18;100.00;60484.78;5042248;28;20033;-71
2023/02/17 00:56:08;;;;;;;62.57;29.47;;;;;;;-145.18;100.00;60484.78;5040908;28;20358;-70
2023/02/17 00:58:34;;;;;;;64.83;31.57;;;;;;;-145.18;100.00;60484.78;5034239;28;20068;-70
2023/02/17 01:01:00;;;;;;;52.73;25.63;;;;;;;-145.18;100.00;60484.78;5034293;28;20029;-69
2023/02/17 01:03:26;;;;;;;60.00;29.93;;;;;;;-145.18;100.00;60484.78;5040066;28;20105;-70
2023/02/17 01:05:53;;;;;;;62.73;31.27;;;;;;;-145.18;100.00;60484.78;5038162;28;20112;-70
2023/02/17 01:08:19;;;;;;;68.27;33.90;;;;;;;-145.18;100.00;60484.78;5046767;28;20075;-70
2023/02/17 01:10:46;;;;;;;65.40;32.60;;;;;;;-145.18;100.00;60484.78;5052747;28;20029;-70
2023/02/17 01:13:14;;;;;;;58.47;28.50;;;;;;;-145.18;100.00;60484.78;5051010;28;20054;-70
2023/02/17 01:15:45;;;;;;;59.50;28.30;;;;;;;-145.18;100.00;60484.78;5052034;28;20037;-70
2023/02/17 01:18:11;;;;;;;;;;;;;;;-145.18;100.00;60484.78;5051149;28;20024;-69
2023/02/17 01:20:37;;;;;;;47.83;24.80;;;;;;;-145.18;100.00;60484.78;5051445;28;20121;-70
2023/02/17 01:23:04;;;;;;;39.57;19.50;;;;;;;-145.18;100.00;60484.78;5052716;28;20027;-69
2023/02/17 01:25:30;;;;;;;55.40;29.53;;;;;;;-145.18;100.00;60484.78;5053104;28;20035;-70
2023/02/17 01:27:56;;;;;;;53.93;28.20;;;;;;;-145.18;100.00;60484.78;5050936;28;20102;-70
2023/02/17 01:30:21;;;;;;;48.77;25.10;;;;;;;-145.18;100.00;60484.78;5053132;28;20052;-70
2023/02/17 01:32:47;;;;;;;56.83;28.97;;;;;;;-145.18;100.00;60484.78;5052026;28;20032;-70
2023/02/17 01:35:13;;;;;;;57.80;29.70;;;;;;;-145.18;100.00;60484.78;5052815;28;20033;-70
2023/02/17 01:37:38;;;;;;;58.00;29.47;;;;;;;-145.18;100.00;60484.78;5050745;28;20182;-70
2023/02/17 01:40:04;;;;;;;56.10;27.70;;;;;;;-145.18;100.00;60484.78;5051601;28;20075;-70
2023/02/17 01:42:29;;;;;;;56.77;28.03;;;;;;;-145.18;100.00;60484.78;5051512;28;20033;-70
2023/02/17 01:45:17;;;;;;;56.13;28.20;;;;;;;-145.18;100.00;60484.78;5049250;28;20037;-70
2023/02/17 01:47:53;;;;;;;52.77;25.47;;;;;;;-145.18;100.00;60484.78;5049746;28;20033;-70
2023/02/17 01:50:21;;;;;;;41.43;20.13;;;;;;;-145.18;100.00;60484.78;5048566;28;20146;-70
2023/02/17 01:52:47;;;;;;;49.03;25.83;;;;;;;-145.18;100.00;60484.78;5052413;28;20067;-70
2023/02/17 01:55:18;;;;;;;41.50;20.87;;;;;;;-145.18;100.00;60484.78;5052545;28;20075;-70
2023/02/17 01:57:45;;;;;;;46.47;23.70;;;;;;;-145.18;100.00;60484.78;5050950;28;20163;-70
2023/02/17 02:00:12;;;;;;;51.33;28.07;;;;;;;-145.18;100.00;60484.78;5052230;28;20029;-70
2023/02/17 02:02:40;;;;;;;56.17;29.57;;;;;;;-145.18;100.00;60484.78;5051553;28;20032;-71
2023/02/17 02:05:06;;;;;;;51.30;25.60;;;;;;;-145.18;100.00;60484.78;5074980;23;20406;-69
2023/02/17 02:07:35;;;;;;;42.37;21.73;;;;;;;-145.18;100.00;60484.78;5060322;28;20029;-69
2023/02/17 02:10:01;;;;;;;45.70;24.80;;;;;;;-145.18;100.00;60484.78;5071852;28;20024;-69
2023/02/17 02:12:30;;;;;;;35.53;18.67;;;;;;;-145.18;100.00;60484.78;5068619;28;20024;-70
2023/02/17 02:15:00;;;;;;;48.73;26.03;;;;;;;-145.18;100.00;60484.78;5069397;28;20220;-70
2023/02/17 02:17:28;;;;;;;45.40;24.87;;;;;;;-145.18;100.00;60484.78;5070984;28;20086;-69
2023/02/17 02:20:16;;;;;;;49.47;25.30;;;;;;;-145.18;100.00;60484.78;5068579;28;20082;-69
2023/02/17 02:23:06;;;;;;;41.57;20.30;;;;;;;-145.18;100.00;60484.78;5062586;28;20506;-70
2023/02/17 02:26:00;;;;;;;52.67;27.07;;;;;;;-145.18;100.00;60484.78;5071632;28;20036;-70
2023/02/17 02:28:44;;;;;;;52.37;27.80;;;;;;;-145.18;100.00;60484.78;5063243;28;20027;-70
2023/02/17 02:31:33;;;;;;;52.97;27.97;;;;;;;-145.18;100.00;60484.78;5070865;28;20391;-70
2023/02/17 02:34:03;;;;;;;46.97;23.40;;;;;;;-145.18;100.00;60484.78;5064697;28;20055;-69
2023/02/17 02:36:38;;;;;;;54.20;27.40;;;;;;;-145.18;100.00;60484.78;5065125;28;20380;-69
2023/02/17 02:39:11;;;;;;;49.00;23.30;;;;;;;-145.18;100.00;60484.78;5069074;28;20475;-69
2023/02/17 02:41:42;;;;;;;50.03;25.47;;;;;;;-145.18;100.00;60484.78;5071423;28;20060;-69
2023/02/17 02:44:09;;;;;;;50.90;25.13;;;;;;;-145.18;100.00;60484.78;5070832;28;20036;-70
2023/02/17 02:46:35;;;;;;;47.10;24.37;;;;;;;-145.18;100.00;60484.78;5066633;28;20024;-69
2023/02/17 02:49:02;;;;;;;47.07;24.90;;;;;;;-145.18;100.00;60484.78;5070376;28;20116;-70
2023/02/17 02:51:30;;;;;;;47.97;23.60;;;;;;;-145.18;100.00;60484.78;5071696;28;20036;-69
2023/02/17 02:54:22;;;;;;;44.53;23.53;;;;;;;-145.18;100.00;60484.78;5071748;28;20032;-70
2023/02/17 02:57:03;;;;;;;44.55;22.27;;;;;;;-145.18;100.00;60484.78;5072159;28;20508;-70
2023/02/17 02:59:31;;;;;;;29.52;13.77;;;;;;;-145.18;100.00;60484.78;5069422;28;20060;-70
2023/02/17 03:02:15;;;;;;;42.97;21.27;;;;;;;-145.18;100.00;60484.78;5071298;28;20043;-69
2023/02/17 03:04:59;;;;;;;41.80;21.70;;;;;;;-145.18;100.00;60484.78;5065561;28;20028;-70
2023/02/17 03:07:30;;;;;;;40.93;20.83;;;;;;;-145.18;100.00;60484.78;5071387;28;20099;-70
2023/02/17 03:09:58;;;;;;;45.72;23.52;;;;;;;-145.18;100.00;60484.78;5071301;28;20499;-70
2023/02/17 03:12:24;;;;;;;44.07;22.60;;;;;;;-145.18;100.00;60484.78;5071757;28;20020;-70
2023/02/17 03:14:56;;;;;;;48.10;23.17;;;;;;;-145.18;100.00;60484.78;5069052;28;20484;-69
2023/02/17 03:17:21;;;;;;;40.92;19.70;;;;;;;-145.18;100.00;60484.78;5069716;28;20051;-69
2023/02/17 03:19:46;;;;;;;46.13;23.53;;;;;;;-145.18;100.00;60484.78;5070712;28;20060;-70
2023/02/17 03:22:20;;;;;;;47.67;20.23;;;;;;;-145.18;100.00;60484.78;5070498;28;20028;-69
2023/02/17 03:24:46;;;;;;;33.30;17.00;;;;;;;-145.18;100.00;60484.78;5071020;28;20499;-70
2023/02/17 03:27:11;;;;;;;42.27;22.20;;;;;;;-145.18;100.00;60484.78;5053123;28;20040;-70
2023/02/17 03:29:37;;;;;;;40.30;20.63;;;;;;;-145.18;100.00;60484.78;5070814;28;20042;-70
2023/02/17 03:32:03;;;;;;;44.90;23.57;;;;;;;-145.18;100.00;60484.78;5070238;28;20024;-69
2023/02/17 03:34:28;;;;;;;35.20;17.70;;;;;;;-145.18;100.00;60484.78;5071046;28;20108;-72
2023/02/17 03:36:54;;;;;;;41.97;20.77;;;;;;;-145.18;100.00;60484.78;5070733;28;20031;-72
2023/02/17 03:39:19;;;;;;;48.73;25.07;;;;;;;-145.18;100.00;60484.78;5071099;28;20037;-72
2023/02/17 03:41:44;;;;;;;42.20;20.17;;;;;;;-145.18;100.00;60484.78;5052457;28;20078;-72
2023/02/17 03:44:10;;;;;;;37.60;17.60;;;;;;;-145.18;100.00;60484.78;5068691;28;20456;-72
2023/02/17 03:46:39;;;;;;;44.20;23.47;;;;;;;-145.18;100.00;60484.78;5075115;28;20043;-72
2023/02/17 03:49:05;;;;;;;38.73;18.80;;;;;;;-145.18;100.00;60484.78;5074066;28;20024;-71
2023/02/17 03:51:30;;;;;;;43.97;21.13;;;;;;;-145.18;100.00;60484.78;5075073;28;20494;-72
2023/02/17 03:53:55;;;;;;;42.80;21.27;;;;;;;-145.18;100.00;60484.78;5071393;28;20037;-71
2023/02/17 03:56:21;;;;;;;50.37;26.27;;;;;;;-145.18;100.00;60484.78;5075305;28;20024;-70
2023/02/17 03:58:46;;;;;;;44.73;20.93;;;;;;;-145.18;100.00;60484.78;5073229;28;20032;-71
2023/02/17 04:01:12;;;;;;;43.40;21.10;;;;;;;-145.18;100.00;60484.78;5074789;28;20060;-68
2023/02/17 04:03:38;;;;;;;35.50;17.13;;;;;;;-145.18;100.00;60484.78;5073522;28;20101;-68
2023/02/17 04:06:04;;;;;;;43.50;22.77;;;;;;;-145.18;100.00;60484.78;5073440;28;20357;-69
2023/02/17 04:08:30;;;;;;;39.33;19.47;;;;;;;-145.18;100.00;60484.78;5071903;28;20040;-67
2023/02/17 04:10:58;;;;;;;42.47;20.50;;;;;;;-145.18;100.00;60484.78;5074361;28;20502;-69
2023/02/17 04:13:24;;;;;;;43.50;21.57;;;;;;;-145.18;100.00;60484.78;5074538;28;20498;-69
2023/02/17 04:15:50;;;;;;;43.93;21.83;;;;;;;-145.18;100.00;60484.78;5071750;28;20024;-70
2023/02/17 04:18:16;;;;;;;51.07;26.07;;;;;;;-145.18;100.00;60484.78;5074081;28;20032;-70
2023/02/17 04:20:42;;;;;;;41.73;20.57;;;;;;;-145.18;100.00;60484.78;5069628;28;20259;-67
2023/02/17 04:23:08;;;;;;;39.83;20.07;;;;;;;-145.18;100.00;60484.78;5074126;28;20036;-70
2023/02/17 04:25:34;;;;;;;43.50;21.93;;;;;;;-145.18;100.00;60484.78;5073995;28;20098;-70
2023/02/17 04:28:01;;;;;;;48.90;24.13;;;;;;;-145.18;100.00;60484.78;5073896;28;20395;-69
2023/02/17 04:30:26;;;;;;;43.33;23.60;;;;;;;-145.18;100.00;60484.78;5049344;28;20039;-71
2023/02/17 04:32:52;;;;;;;41.13;20.20;;;;;;;-145.18;100.00;60484.78;5072758;28;20029;-70
2023/02/17 04:35:17;;;;;;;40.17;21.43;;;;;;;-145.18;100.00;60484.78;5055658;28;20526;-70
2023/02/17 04:37:42;;;;;;;41.70;21.60;;;;;;;-145.18;100.00;60484.78;5073382;28;20494;-70
2023/02/17 04:40:09;;;;;;;42.50;22.37;;;;;;;-145.18;100.00;60484.78;5074392;28;20545;-70
2023/02/17 04:42:37;;;;;;;46.17;24.93;;;;;;;-145.18;100.00;60484.78;5073850;28;20064;-70
2023/02/17 04:45:04;;;;;;;41.10;21.30;;;;;;;-145.18;100.00;60484.78;5072613;28;20028;-70
2023/02/17 04:47:29;;;;;;;44.57;23.57;;;;;;;-145.18;100.00;60484.78;5072149;28;20115;-70
2023/02/17 04:49:55;;;;;;;44.67;23.93;;;;;;;-145.18;100.00;60484.78;5072926;28;20538;-71
2023/02/17 04:52:20;;;;;;;36.00;16.80;;;;;;;-145.18;100.00;60484.78;5073683;28;20103;-69
2023/02/17 04:54:46;;;;;;;38.67;21.93;;;;;;;-145.18;100.00;60484.78;5072065;28;20028;-71
2023/02/17 04:57:11;;;;;;;39.83;21.90;;;;;;;-145.18;100.00;60484.78;5069862;28;20038;-69
2023/02/17 04:59:36;;;;;;;38.23;22.33;;;;;;;-145.18;100.00;60484.78;5071928;28;20033;-70
2023/02/17 05:02:02;;;;;;;33.27;17.93;;;;;;;-145.18;100.00;60484.78;5070031;28;20036;-71
2023/02/17 05:04:27;;;;;;;26.93;13.93;;;;;;;-145.18;100.00;60484.78;5071103;28;20034;-69
2023/02/17 05:06:53;;;;;;;34.70;19.03;;;;;;;-145.18;100.00;60484.78;5071460;28;20040;-69
2023/02/17 05:09:18;;;;;;;30.70;18.10;;;;;;;-145.18;100.00;60484.78;5073559;28;20426;-71
2023/02/17 05:11:44;;;;;;;32.23;17.53;;;;;;;-145.18;100.00;60484.78;5073000;28;20028;-71
2023/02/17 05:14:09;;;;;;;30.47;15.53;;;;;;;-145.18;100.00;60484.78;5073974;28;20036;-70
2023/02/17 05:16:35;;;;;;;25.57;13.70;;;;;;;-145.18;100.00;60484.78;5072118;28;20111;-68
2023/02/17 05:19:00;;;;;;;34.73;18.90;;;;;;;-145.18;100.00;60484.78;5070408;28;20024;-71
2023/02/17 05:21:25;;;;;;;29.70;17.13;;;;;;;-145.18;100.00;60484.78;5071755;28;20031;-70
2023/02/17 05:23:51;;;;;;;31.60;18.07;;;;;;;-145.18;100.00;60484.78;5073474;28;20519;-71
2023/02/17 05:26:16;;;;;;;30.87;17.40;;;;;;;-145.18;100.00;60484.78;5071980;28;20111;-69
2023/02/17 05:28:41;;;;;;;26.63;14.80;;;;;;;-145.18;100.00;60484.78;5073197;28;20051;-70
2023/02/17 05:31:07;;;;;;;29.83;18.43;;;;;;;-145.18;100.00;60484.78;5070649;28;20119;-71
2023/02/17 05:33:32;;;;;;;24.13;13.70;;;;;;;-145.18;100.00;60484.78;5072586;28;20032;-70
2023/02/17 05:36:05;;;;;;;27.77;15.23;;;;;;;-145.18;100.00;60484.78;5071932;28;20368;-70
2023/02/17 05:38:31;;;;;;;27.97;16.37;;;;;;;-145.18;100.00;60484.78;5068948;28;20032;-71
2023/02/17 05:40:57;;;;;;;30.33;17.17;;;;;;;-145.18;100.00;60484.78;5072463;28;20239;-70
2023/02/17 05:43:22;;;;;;;16.13;8.57;;;;;;;-145.18;100.00;60484.78;5072377;28;20117;-67
2023/02/17 05:45:48;;;;;;;28.30;17.13;;;;;;;-145.18;100.00;60484.78;5071095;28;20077;-70
2023/02/17 05:48:13;;;;;;;26.90;14.90;;;;;;;-145.18;100.00;60484.78;5072741;28;20052;-70
2023/02/17 05:50:38;;;;;;;26.83;14.30;;;;;;;-145.18;100.00;60484.78;5072114;28;20025;-69
2023/02/17 05:53:04;;;;;;;26.93;15.77;;;;;;;-145.18;100.00;60484.78;5054536;28;20094;-71
2023/02/17 05:55:29;;;;;;;22.23;12.43;;;;;;;-145.18;100.00;60484.78;5068018;28;20029;-69
2023/02/17 05:57:55;;;;;;;26.20;14.87;;;;;;;-145.18;100.00;60484.78;5072097;28;20021;-70
2023/02/17 06:00:20;;;;;;;25.93;15.80;;;;;;;-145.18;100.00;60484.78;5071255;28;20024;-71
2023/02/17 06:02:46;;;;;;;20.03;10.13;;;;;;;-145.18;100.00;60484.78;5069694;28;20040;-70
2023/02/17 06:05:11;;;;;;;22.73;12.70;;;;;;;-145.18;100.00;60484.78;5069640;28;20074;-69
2023/02/17 06:07:37;;;;;;;26.67;14.33;;;;;;;-145.18;100.00;60484.78;5052015;28;20032;-70
2023/02/17 06:10:03;;;;;;;27.70;14.73;;;;;;;-145.18;100.00;60484.78;5071332;28;20032;-71
2023/02/17 06:12:28;;;;;;;25.47;13.57;;;;;;;-145.18;100.00;60484.78;5069860;28;20488;-70
2023/02/17 06:14:53;;;;;;;23.40;11.63;;;;;;;-145.18;100.00;60484.78;5053995;28;20033;-69
2023/02/17 06:17:19;;;;;;;25.07;13.27;;;;;;;-145.18;100.00;60484.78;5070568;28;20024;-70
2023/02/17 06:19:44;;;;;;;19.80;10.10;;;;;;;-145.18;100.00;60484.78;5072553;28;20024;-70
2023/02/17 06:22:10;;;;;;;25.63;13.23;;;;;;;-145.18;100.00;60484.78;5070049;28;20379;-72
2023/02/17 06:24:35;;;;;;;19.17;9.90;;;;;;;-145.18;100.00;60484.78;5071544;28;20029;-67
2023/02/17 06:27:01;;;;;;;18.97;10.23;;;;;;;-145.18;100.00;60484.78;5072431;28;20028;-68
2023/02/17 06:29:26;;;;;;;29.83;14.43;;;;;;;-145.18;100.00;60484.78;5060559;28;20413;-70
2023/02/17 06:31:52;;;;;;;24.73;12.93;;;;;;;-145.18;100.00;60484.78;5064215;28;20150;-70
2023/02/17 06:34:18;;;;;;;23.50;12.13;;;;;;;-145.18;100.00;60484.78;5071870;28;20036;-71
2023/02/17 06:36:43;;;;;;;22.53;11.33;;;;;;;-145.18;100.00;60484.78;5071547;28;20033;-70
2023/02/17 06:39:09;;;;;;;24.20;12.40;;;;;;;-145.18;100.00;60484.78;5072172;28;20021;-70
2023/02/17 06:41:34;;;;;;;21.23;10.47;;;;;;;-145.18;100.00;60484.78;5070480;28;20036;-71
2023/02/17 06:43:59;;;;;;;22.33;12.50;;;;;;;-145.18;100.00;60484.78;5071494;28;20029;-70
2023/02/17 06:46:25;;;;;;;23.10;11.23;;;;;;;-145.18;100.00;60484.78;5071539;28;20036;-70
2023/02/17 06:48:50;;;;;;;21.77;9.07;;;;;;;-145.18;100.00;60484.78;5069226;28;20025;-68
2023/02/17 06:51:15;;;;;;;20.57;10.53;;;;;;;-145.18;100.00;60484.78;5052923;28;20020;-69
2023/02/17 06:53:41;;;;;;;24.23;12.17;;;;;;;-145.18;100.00;60484.78;5070882;28;20029;-70
2023/02/17 06:56:06;;;;;;;18.97;8.90;;;;;;;-145.18;100.00;60484.78;5072267;28;20484;-69
2023/02/17 06:58:34;;;;;;;20.63;10.93;;;;;;;-145.18;100.00;60484.78;5072188;28;20031;-70
2023/02/17 07:01:00;;;;;;;22.70;12.17;;;;;;;-145.18;100.00;60484.78;5071644;28;20352;-70
2023/02/17 07:03:25;;;;;;;26.53;12.50;;;;;;;-145.18;100.00;60484.78;5069809;28;20093;-71
2023/02/17 07:05:56;;;;;;;24.30;12.27;;;;;;;-145.18;100.00;60484.78;5071063;28;20040;-69
2023/02/17 07:08:21;;;;;;;24.83;13.30;;;;;;;-145.18;100.00;60484.78;5053324;28;20069;-70
2023/02/17 07:10:46;;;;;;;22.77;10.80;;;;;;;-145.18;100.00;60484.78;5071794;28;20427;-71
2023/02/17 07:13:12;;;;;;;22.47;12.30;;;;;;;-145.18;100.00;60484.78;5070717;28;20115;-69
2023/02/17 07:15:37;;;;;;;21.97;11.87;;;;;;;-145.18;100.00;60484.78;5068579;28;20039;-70
2023/02/17 07:18:03;;;;;;;21.77;10.70;;;;;;;-145.18;100.00;60484.78;5066752;28;20388;-69
2023/02/17 07:20:30;;;;;;;24.13;11.77;;;;;;;-145.18;100.00;60484.78;5067365;28;20032;-70
2023/02/17 07:22:56;;;;;;;22.03;11.53;;;;;;;-145.18;100.00;60484.78;5068970;28;20021;-70
2023/02/17 07:25:21;;;;;;;25.83;14.07;;;;;;;-145.18;100.00;60484.78;5053974;28;20534;-70
2023/02/17 07:27:47;;;;;;;24.93;13.67;;;;;;;-145.18;100.00;60484.78;5074819;28;20509;-69
2023/02/17 07:30:12;;;;;;;22.47;10.00;;;;;;;-145.18;100.00;60484.78;5075669;28;20028;-68
2023/02/17 07:32:38;;;;;;;24.27;12.60;;;;;;;-145.18;100.00;60484.78;5074306;28;20067;-69
2023/02/17 07:35:03;;;;;;;31.53;15.87;;;;;;;-145.18;100.00;60484.78;5057663;28;20538;-70
2023/02/17 07:37:29;;;;;;;23.83;11.00;;;;;;;-145.18;100.00;60484.78;5063985;28;20486;-71
2023/02/17 07:39:56;;;;;;;27.37;13.23;;;;;;;-145.18;100.00;60484.78;5064752;28;20067;-71
2023/02/17 07:42:21;;;;;;;28.27;13.30;;;;;;;-145.18;100.00;60484.78;5069381;28;20036;-71
2023/02/17 07:44:47;;;;;;;18.53;9.37;;;;;;;-145.18;100.00;60484.78;5074477;28;20039;-68
2023/02/17 07:47:12;;;;;;;29.57;15.00;;;;;;;-145.18;100.00;60484.78;5073245;28;20032;-70
2023/02/17 07:49:38;;;;;;;24.57;12.10;;;;;;;-145.18;100.00;60484.78;5075166;28;20029;-70
2023/02/17 07:52:04;;;;;;;25.30;11.53;;;;;;;-145.18;100.00;60484.78;5070258;28;20063;-69
2023/02/17 07:54:29;;;;;;;22.50;11.17;;;;;;;-145.18;100.00;60484.78;5055393;28;20036;-69
2023/02/17 07:56:57;;;;;;;24.23;11.67;;;;;;;-145.18;100.00;60484.78;5070635;28;20368;-69
2023/02/17 07:59:22;;;;;;;28.23;12.53;;;;;;;-145.18;100.00;60484.78;5075044;28;20056;-70
2023/02/17 08:01:48;;;;;;;27.33;12.53;;;;;;;-145.18;100.00;60484.78;5075017;28;20557;-67
2023/02/17 08:04:15;;;;;;;31.00;14.03;;;;;;;-145.18;100.00;60484.78;5073642;28;20024;-69
2023/02/17 08:06:41;;;;;;;28.40;12.67;;;;;;;-145.18;100.00;60484.78;5072484;28;20482;-68
2023/02/17 08:14:40;;;;;;;25.40;12.40;;;;;;;-145.18;100.00;60484.78;5075759;28;20496;-69
2023/02/17 08:17:14;;;;;;;30.07;13.10;;;;;;;-145.18;100.00;60484.78;5072042;28;20052;-70
2023/02/17 08:19:40;;;;;;;31.30;13.53;;;;;;;-145.18;100.00;60484.78;5075253;28;20035;-68
2023/02/17 08:22:05;;;;;;;24.47;10.70;;;;;;;-145.18;100.00;60484.78;5073871;28;20388;-70
2023/02/17 08:24:31;;;;;;;26.53;10.67;;;;;;;-145.18;100.00;60484.78;5056359;28;20029;-69
2023/02/17 08:26:56;;;;;;;22.43;10.53;;;;;;;-145.18;100.00;60484.78;5071471;28;20119;-70
2023/02/17 08:29:21;;;;;;;26.20;11.77;;;;;;;-145.18;100.00;60484.78;5072766;28;20060;-69
2023/02/17 08:31:50;;;;;;;29.30;13.43;;;;;;;-145.18;100.00;60484.78;5072703;28;20032;-68
2023/02/17 08:34:17;;;;;;;24.50;11.23;;;;;;;-145.18;100.00;60484.78;5073696;28;20058;-71
2023/02/17 08:36:42;;;;;;;27.73;13.07;;;;;;;-145.18;100.00;60484.78;5069545;28;20498;-68
2023/02/17 08:39:13;;;;;;;33.07;16.07;;;;;;;-145.18;100.00;60484.78;5071230;28;20054;-69
2023/02/17 08:41:39;;;;;;;31.33;14.10;;;;;;;-145.18;100.00;60484.78;5056932;28;20029;-70
2023/02/17 08:44:11;;;;;;;26.07;11.47;;;;;;;-145.18;100.00;60484.78;5073977;28;20039;-70
2023/02/17 08:46:38;;;;;;;29.03;13.03;;;;;;;-145.18;100.00;60484.78;5074269;28;20377;-68
2023/02/17 08:49:05;;;;;;;25.77;11.77;;;;;;;-145.18;100.00;60484.78;5074934;28;20052;-69
2023/02/17 08:51:30;;;;;;;22.50;10.47;;;;;;;-145.18;100.00;60484.78;5054220;28;20115;-68
2023/02/17 08:53:59;;;;;;;20.60;9.87;;;;;;;-145.18;100.00;60484.78;5065205;28;20466;-69
2023/02/17 08:56:26;;;;;;;35.80;16.63;;;;;;;-145.18;100.00;60484.78;5075607;28;20029;-70
2023/02/17 08:58:52;;;;;;;28.23;13.43;;;;;;;-145.18;100.00;60484.78;5074318;28;20047;-72
2023/02/17 09:01:18;;;;;;;23.50;11.90;;;;;;;-145.18;100.00;60484.78;5071278;28;20036;-70
2023/02/17 09:03:46;;;;;;;29.37;13.17;;;;;;;-145.18;100.00;60484.78;5070670;28;20036;-71
2023/02/17 09:06:12;;;;;;;29.40;15.30;;;;;;;-145.18;100.00;60484.78;5036489;28;20140;-72
2023/02/17 09:08:39;;;;;;;28.23;11.57;;;;;;;-145.18;100.00;60484.78;5071382;28;20036;-70
2023/02/17 09:11:05;;;;;;;22.57;9.50;;;;;;;-145.18;100.00;60484.78;5073707;28;20069;-69
2023/02/17 09:13:31;;;;;;;29.50;15.10;;;;;;;-145.18;100.00;60484.78;5071064;28;20037;-68
2023/02/17 09:15:57;;;;;;;24.67;12.57;;;;;;;-145.18;100.00;60484.78;5069450;28;20028;-69
2023/02/17 09:18:24;;;;;;;33.27;15.23;;;;;;;-145.18;100.00;60484.78;5073496;28;20063;-71
2023/02/17 09:20:49;;;;;;;25.30;12.13;;;;;;;-145.18;100.00;60484.78;5073064;28;20040;-70
2023/02/17 09:23:15;;;;;;;28.17;14.07;;;;;;;-145.18;100.00;60484.78;5050176;28;20491;-69
2023/02/17 09:25:41;;;;;;;24.00;11.10;;;;;;;-145.18;100.00;60484.78;5071498;28;20081;-67
2023/02/17 09:28:07;;;;;;;27.77;13.07;;;;;;;-145.18;100.00;60484.78;5073354;28;20063;-69
2023/02/17 09:30:32;;;;;;;23.67;10.83;;;;;;;-145.18;100.00;60484.78;5068963;28;20078;-69
2023/02/17 09:32:58;;;;;;;22.80;11.40;;;;;;;-145.18;100.00;60484.78;5072338;28;20040;-70
2023/02/17 09:35:24;;;;;;;25.10;11.60;;;;;;;-145.18;100.00;60484.78;5072146;28;20475;-70
2023/02/17 09:37:50;;;;;;;26.20;12.43;;;;;;;-145.18;100.00;60484.78;5072129;28;20028;-72
2023/02/17 09:40:22;;;;;;;30.30;14.50;;;;;;;-145.18;100.00;60484.78;5073843;28;20030;-71
2023/02/17 09:42:48;;;;;;;27.07;14.10;;;;;;;-145.18;100.00;60484.78;5072447;28;20458;-70
2023/02/17 09:45:23;;;;;;;27.30;13.60;;;;;;;-145.18;100.00;60484.78;5071796;28;20393;-71
2023/02/17 09:48:02;;;;;;;24.07;10.00;;;;;;;-145.18;100.00;60484.78;5068035;28;20043;-67
2023/02/17 09:50:52;;;;;;;29.30;15.10;;;;;;;-145.18;100.00;60484.78;5073982;28;20028;-71
2023/02/17 09:53:37;;;;;;;21.53;10.83;;;;;;;-145.18;100.00;60484.78;5045721;28;20044;-67
2023/02/17 09:56:07;;;;;;;24.17;11.60;;;;;;;-145.18;100.00;60484.78;5067413;28;20032;-70
2023/02/17 09:58:35;;;;;;;17.70;7.77;;;;;;;-145.18;100.00;60484.78;5069414;28;20032;-68
2023/02/17 10:01:05;;;;;;;21.90;12.00;;;;;;;-145.18;100.00;60484.78;5057697;28;20029;-70
2023/02/17 10:03:44;;;;;;;20.57;11.17;;;;;;;-145.18;100.00;60484.78;5052949;28;20044;-71
2023/02/17 10:06:27;;;;;;;22.77;11.63;;;;;;;-145.18;100.00;60484.78;5072683;28;20534;-70
2023/02/17 10:08:59;;;;;;;19.63;9.80;;;;;;;-145.18;100.00;60484.78;5035510;28;20028;-70
2023/02/17 10:11:35;;;;;;;19.10;10.13;;;;;;;-145.18;100.00;60484.78;5052689;28;20068;-68
2023/02/17 10:14:08;;;;;;;23.23;12.67;;;;;;;-145.18;100.00;60484.78;5052484;28;20048;-68
2023/02/17 10:16:42;;;;;;;25.77;12.27;;;;;;;-145.18;100.00;60484.78;5070561;28;20024;-72
2023/02/17 10:19:18;;;;;;;20.37;10.23;;;;;;;-145.18;100.00;60484.78;5071055;28;20043;-71
2023/02/17 10:21:54;;;;;;;20.80;10.60;;;;;;;-145.18;100.00;60484.78;5070992;28;20123;-68
2023/02/17 10:24:20;;;;;;;18.83;9.87;;;;;;;-145.18;100.00;60484.78;5071991;28;20032;-73
2023/02/17 10:27:07;;;;;;;19.63;10.90;;;;;;;-145.18;100.00;60484.78;5072852;28;20025;-69
2023/02/17 10:29:41;;;;;;;17.40;8.93;;;;;;;-145.18;100.00;60484.78;5053731;28;20052;-69
2023/02/17 10:32:23;;;;;;;18.17;7.97;;;;;;;-145.18;100.00;60484.78;5059375;28;20044;-68
2023/02/17 10:34:49;;;;;;;16.83;7.88;;;;;;;-145.18;100.00;60484.78;5052248;28;20029;-69
2023/02/17 10:37:32;;;;;;;17.73;8.63;;;;;;;-145.18;100.00;60484.78;5064705;28;20131;-68
2023/02/17 10:40:00;;;;;;;15.43;8.50;;;;;;;-145.18;100.00;60484.78;5067798;28;20032;-71
2023/02/17 10:42:33;;;;;;;12.60;7.23;;;;;;;-145.18;100.00;60484.78;5071089;28;20037;-69
2023/02/17 10:45:14;;;;;;;11.97;6.63;;;;;;;-145.18;100.00;60484.78;5071347;28;20480;-70
2023/02/17 10:47:40;;;;;;;13.68;6.75;;;;;;;-145.18;100.00;60484.78;5069685;28;20029;-71
2023/02/17 10:50:17;;;;;;;13.50;7.10;;;;;;;-145.18;100.00;60484.78;5052087;28;20040;-72
2023/02/17 10:52:43;;;;;;;15.00;8.03;;;;;;;-145.18;100.00;60484.78;5066506;28;20029;-70
2023/02/17 10:55:51;;;;;;;15.20;8.43;;;;;;;-145.18;100.00;60484.78;5072820;28;20595;-69
2023/02/17 10:58:35;;;;;;;14.97;7.43;;;;;;;-145.18;100.00;60484.78;5056628;28;20540;-68
2023/02/17 11:01:04;;;;;;;14.37;7.90;;;;;;;-145.18;100.00;60484.78;5063790;28;20075;-69
2023/02/17 11:03:32;;;;;;;18.77;9.63;;;;;;;-145.18;100.00;60484.78;5072185;28;20400;-71
2023/02/17 11:06:00;;;;;;;14.63;7.50;;;;;;;-145.18;100.00;60484.78;5051661;28;20040;-69